createdAt,value
2019-06-08T00:00:59.793Z,87.08
2019-06-08T00:01:59.528Z,86.94
2019-06-08T00:02:59.795Z,87.13
2019-06-08T00:03:59.771Z,85.93
2019-06-08T00:04:59.789Z,87.08
2019-06-08T00:05:59.800Z,87.74
2019-06-08T00:06:59.782Z,87.99
2019-06-08T00:07:59.795Z,87.8
2019-06-08T00:08:59.773Z,86.65
2019-06-08T00:09:59.771Z,86.74
2019-06-08T00:10:59.769Z,87.32
2019-06-08T00:11:59.766Z,86.74
2019-06-08T00:12:59.769Z,87.32
2019-06-08T00:13:59.519Z,86.94
2019-06-08T00:14:59.805Z,86.94
2019-06-08T00:15:59.760Z,86.94
2019-06-08T00:16:59.508Z,87.9
2019-06-08T00:18:01.623Z,87.99
2019-06-08T00:18:59.506Z,87.23
2019-06-08T00:19:59.755Z,86.74
2019-06-08T00:20:59.754Z,87.41
2019-06-08T00:21:59.753Z,88.28
2019-06-08T00:22:59.753Z,88.85
2019-06-08T00:23:59.496Z,89.62
2019-06-08T00:24:59.760Z,90.77
2019-06-08T00:25:59.754Z,90.48
2019-06-08T00:26:59.751Z,91.82
2019-06-08T00:27:59.785Z,91.72
2019-06-08T00:28:59.495Z,91.53
2019-06-08T00:29:59.742Z,91.92
2019-06-08T00:30:59.489Z,91.34
2019-06-08T00:31:59.758Z,89.9
2019-06-08T00:32:59.742Z,90.48
2019-06-08T00:33:59.737Z,90.67
2019-06-08T00:34:59.481Z,91.53
2019-06-08T00:35:59.741Z,91.63
2019-06-08T00:36:59.501Z,91.44
2019-06-08T00:37:59.780Z,90.67
2019-06-08T00:38:59.742Z,89.9
2019-06-08T00:39:59.741Z,88.28
2019-06-08T00:40:59.734Z,89.33
2019-06-08T00:41:59.488Z,90.86
2019-06-08T00:42:59.729Z,88.95
2019-06-08T00:43:59.742Z,89.81
2019-06-08T00:44:59.715Z,90.67
2019-06-08T00:45:59.467Z,90
2019-06-08T00:46:59.715Z,89.04
2019-06-08T00:47:59.483Z,87.23
2019-06-08T00:48:59.715Z,86.74
2019-06-08T00:49:59.470Z,88.18
2019-06-08T00:50:59.455Z,86.94
2019-06-08T00:51:59.717Z,88.09
2019-06-08T00:52:59.466Z,87.41
2019-06-08T00:53:59.458Z,86.94
2019-06-08T00:54:59.463Z,86.94
2019-06-08T00:55:59.476Z,87.32
2019-06-08T00:56:59.453Z,86.84
2019-06-08T00:57:59.464Z,87.8
2019-06-08T00:58:59.707Z,86.94
2019-06-08T00:59:59.695Z,86.74
2019-06-08T01:00:59.748Z,86.65
2019-06-08T01:01:59.724Z,87.61
2019-06-08T01:02:59.699Z,87.7
2019-06-08T01:03:59.436Z,88.85
2019-06-08T01:04:59.717Z,88.37
2019-06-08T01:05:59.686Z,87.61
2019-06-08T01:06:59.698Z,88.47
2019-06-08T01:07:59.445Z,88.43
2019-06-08T01:08:59.432Z,89.38
2019-06-08T01:09:59.683Z,90.67
2019-06-08T01:10:59.697Z,89.14
2019-06-08T01:11:59.685Z,87.61
2019-06-08T01:12:59.452Z,88.23
2019-06-08T01:13:59.419Z,88.33
2019-06-08T01:14:59.429Z,88.81
2019-06-08T01:15:59.423Z,88.9
2019-06-08T01:16:59.659Z,89.19
2019-06-08T01:18:05.499Z,89.09
2019-06-08T01:18:59.667Z,88.81
2019-06-08T01:19:59.420Z,89.76
2019-06-08T01:20:59.662Z,88.76
2019-06-08T01:21:59.424Z,88.28
2019-06-08T01:22:59.664Z,88.18
2019-06-08T01:23:59.663Z,86.84
2019-06-08T01:24:59.421Z,86.65
2019-06-08T01:25:59.665Z,87.27
2019-06-08T01:26:59.649Z,86.9
2019-06-08T01:27:59.419Z,86.7
2019-06-08T01:28:59.654Z,87.47
2019-06-08T01:29:59.647Z,87.18
2019-06-08T01:30:59.412Z,87.47
2019-06-08T01:31:59.394Z,88.71
2019-06-08T01:32:59.645Z,88.23
2019-06-08T01:33:59.399Z,87.47
2019-06-08T01:34:59.659Z,86.9
2019-06-08T01:35:59.631Z,86.04
2019-06-08T01:36:59.662Z,86.9
2019-06-08T01:37:59.648Z,87.56
2019-06-08T01:38:59.386Z,86.7
2019-06-08T01:39:59.379Z,87.66
2019-06-08T01:40:59.386Z,86.22
2019-06-08T01:41:59.381Z,86.99
2019-06-08T01:42:59.637Z,88.04
2019-06-08T01:43:59.627Z,85.69
2019-06-08T01:44:59.621Z,84.83
2019-06-08T01:45:59.615Z,85.46
2019-06-08T01:46:59.378Z,85.79
2019-06-08T01:47:59.632Z,86.41
2019-06-08T01:48:59.375Z,86.65
2019-06-08T01:49:59.625Z,85.65
2019-06-08T01:50:59.358Z,86.04
2019-06-08T01:51:59.378Z,86.32
2019-06-08T01:52:59.380Z,86.61
2019-06-08T01:54:00.160Z,86.9
2019-06-08T01:54:59.599Z,85.65
2019-06-08T01:55:59.616Z,86.7
2019-06-08T01:56:59.354Z,86.13
2019-06-08T01:57:59.602Z,86.13
2019-06-08T01:58:59.348Z,86.04
2019-06-08T01:59:59.346Z,85.84
2019-06-08T02:00:59.591Z,86.13
2019-06-08T02:01:59.592Z,86.32
2019-06-08T02:02:59.606Z,86.08
2019-06-08T02:03:59.639Z,85.65
2019-06-08T02:04:59.595Z,85.98
2019-06-08T02:05:59.350Z,86.65
2019-06-08T02:06:59.593Z,85.98
2019-06-08T02:07:59.690Z,86.36
2019-06-08T02:08:59.349Z,86.17
2019-06-08T02:09:59.330Z,85.5
2019-06-08T02:10:59.332Z,85.21
2019-06-08T02:11:59.600Z,86.08
2019-06-08T02:12:59.579Z,86.55
2019-06-08T02:13:59.326Z,84.45
2019-06-08T02:14:59.579Z,84.06
2019-06-08T02:15:59.568Z,84.64
2019-06-08T02:16:59.568Z,85.79
2019-06-08T02:17:59.570Z,85.79
2019-06-08T02:18:59.320Z,84.35
2019-06-08T02:19:59.573Z,85.27
2019-06-08T02:20:59.561Z,85.12
2019-06-08T02:21:59.563Z,85.69
2019-06-08T02:22:59.570Z,85.98
2019-06-08T02:24:04.915Z,86.7
2019-06-08T02:24:59.563Z,86.9
2019-06-08T02:25:59.550Z,86.84
2019-06-08T02:26:59.303Z,86.46
2019-06-08T02:27:59.557Z,87.41
2019-06-08T02:28:59.585Z,87.23
2019-06-08T02:29:59.547Z,85.69
2019-06-08T02:30:59.550Z,86.08
2019-06-08T02:31:59.546Z,85.88
2019-06-08T02:32:59.546Z,86.55
2019-06-08T02:33:59.540Z,84.92
2019-06-08T02:34:59.306Z,84.92
2019-06-08T02:35:59.548Z,85.69
2019-06-08T02:36:59.540Z,86.9
2019-06-08T02:37:59.543Z,86.65
2019-06-08T02:38:59.536Z,85.5
2019-06-08T02:39:59.540Z,85.27
2019-06-08T02:40:59.530Z,86.13
2019-06-08T02:41:59.552Z,85.94
2019-06-08T02:42:59.553Z,86.61
2019-06-08T02:43:59.520Z,86.51
2019-06-08T02:44:59.525Z,87.47
2019-06-08T02:45:59.530Z,85.98
2019-06-08T02:46:59.528Z,85.75
2019-06-08T02:47:59.293Z,85.69
2019-06-08T02:49:06.815Z,84.83
2019-06-08T02:49:59.510Z,86.36
2019-06-08T02:50:59.521Z,85.88
2019-06-08T02:51:59.262Z,85.41
2019-06-08T02:52:59.522Z,85.79
2019-06-08T02:53:59.514Z,85.21
2019-06-08T02:54:59.777Z,84.83
2019-06-08T02:55:59.515Z,85.02
2019-06-08T02:56:59.515Z,84.55
2019-06-08T02:57:59.506Z,83.87
2019-06-08T02:58:59.247Z,84.16
2019-06-08T03:00:00.335Z,85.12
2019-06-08T03:00:59.497Z,86.65
2019-06-08T03:01:59.494Z,85.5
2019-06-08T03:02:59.520Z,85.31
2019-06-08T03:03:59.494Z,84.35
2019-06-08T03:04:59.488Z,84.92
2019-06-08T03:05:59.493Z,83.97
2019-06-08T03:06:59.494Z,83.87
2019-06-08T03:07:59.484Z,83.39
2019-06-08T03:08:59.494Z,84.06
2019-06-08T03:09:59.254Z,84.83
2019-06-08T03:10:59.226Z,84.83
2019-06-08T03:11:59.478Z,85.02
2019-06-08T03:12:59.501Z,84.16
2019-06-08T03:13:59.483Z,83.01
2019-06-08T03:14:59.493Z,83.11
2019-06-08T03:15:59.485Z,83.68
2019-06-08T03:16:59.472Z,84.26
2019-06-08T03:17:59.482Z,84.55
2019-06-08T03:19:09.660Z,84.83
2019-06-08T03:19:59.225Z,84.64
2019-06-08T03:20:59.461Z,83.97
2019-06-08T03:21:59.470Z,83.59
2019-06-08T03:22:59.465Z,83.78
2019-06-08T03:23:59.219Z,84.35
2019-06-08T03:25:00.510Z,84.06
2019-06-08T03:25:59.484Z,83.68
2019-06-08T03:26:59.450Z,83.01
2019-06-08T03:27:59.597Z,83.54
2019-06-08T03:28:59.448Z,83.36
2019-06-08T03:29:59.476Z,84.41
2019-06-08T03:30:59.458Z,83.3
2019-06-08T03:32:00.054Z,83.3
2019-06-08T03:32:59.890Z,84.35
2019-06-08T03:33:59.457Z,84.02
2019-06-08T03:34:59.653Z,84.5
2019-06-08T03:36:01.091Z,83.78
2019-06-08T03:37:00.053Z,84.06
2019-06-08T03:37:59.188Z,84.45
2019-06-08T03:38:59.438Z,84.83
2019-06-08T03:39:59.429Z,83.39
2019-06-08T03:40:59.431Z,82.43
2019-06-08T03:41:59.441Z,82.15
2019-06-08T03:43:02.001Z,82.15
2019-06-08T03:43:59.437Z,82.73
2019-06-08T03:44:59.181Z,82.73
2019-06-08T03:45:59.438Z,82.43
2019-06-08T03:46:59.445Z,82.92
2019-06-08T03:47:59.419Z,83.01
2019-06-08T03:48:59.422Z,83.2
2019-06-08T03:50:00.057Z,82.92
2019-06-08T03:50:59.423Z,83.39
2019-06-08T03:51:59.167Z,83.11
2019-06-08T03:52:59.179Z,83.39
2019-06-08T03:53:59.406Z,83.39
2019-06-08T03:54:59.170Z,82.92
2019-06-08T03:55:59.399Z,82.15
2019-06-08T03:56:59.413Z,81.96
2019-06-08T03:57:59.410Z,83.11
2019-06-08T03:58:59.401Z,81.67
2019-06-08T03:59:59.158Z,81.38
2019-06-08T04:00:59.396Z,81.57
2019-06-08T04:01:59.409Z,82.15
2019-06-08T04:02:59.394Z,83.01
2019-06-08T04:04:02.405Z,82.34
2019-06-08T04:04:59.389Z,81.1
2019-06-08T04:05:59.386Z,80.81
2019-06-08T04:06:59.394Z,80.33
2019-06-08T04:07:59.390Z,80.33
2019-06-08T04:08:59.396Z,81.2
2019-06-08T04:09:59.384Z,81.1
2019-06-08T04:10:59.377Z,81.2
2019-06-08T04:11:59.138Z,80.81
2019-06-08T04:12:59.135Z,81.2
2019-06-08T04:13:59.375Z,81.29
2019-06-08T04:14:59.396Z,81.96
2019-06-08T04:15:59.137Z,82.06
2019-06-08T04:16:59.380Z,81.67
2019-06-08T04:17:59.128Z,80.43
2019-06-08T04:18:59.374Z,81.1
2019-06-08T04:20:13.327Z,80.9
2019-06-08T04:20:59.392Z,80.81
2019-06-08T04:21:59.366Z,80.33
2019-06-08T04:22:59.112Z,81.29
2019-06-08T04:23:59.360Z,80.71
2019-06-08T04:24:59.364Z,80.52
2019-06-08T04:26:00.958Z,81.2
2019-06-08T04:26:59.364Z,81.57
2019-06-08T04:27:59.360Z,81.29
2019-06-08T04:28:59.359Z,81.2
2019-06-08T04:29:59.110Z,80.04
2019-06-08T04:30:59.369Z,78.99
2019-06-08T04:31:59.359Z,78.51
2019-06-08T04:32:59.353Z,78.8
2019-06-08T04:33:59.357Z,78.8
2019-06-08T04:34:59.100Z,78.32
2019-06-08T04:35:59.352Z,78.99
2019-06-08T04:36:59.350Z,78.89
2019-06-08T04:37:59.336Z,78.42
2019-06-08T04:38:59.349Z,78.89
2019-06-08T04:39:59.332Z,79.95
2019-06-08T04:40:59.350Z,79.95
2019-06-08T04:41:59.336Z,78.7
2019-06-08T04:42:59.326Z,78.22
2019-06-08T04:43:59.333Z,77.55
2019-06-08T04:44:59.347Z,78.03
2019-06-08T04:45:59.094Z,78.17
2019-06-08T04:46:59.083Z,77.5
2019-06-08T04:47:59.335Z,78.36
2019-06-08T04:48:59.330Z,77.5
2019-06-08T04:49:59.328Z,77.4
2019-06-08T04:50:59.318Z,76.73
2019-06-08T04:51:59.322Z,76.92
2019-06-08T04:52:59.097Z,76.82
2019-06-08T04:53:59.072Z,76.44
2019-06-08T04:54:59.327Z,75.87
2019-06-08T04:56:00.929Z,75.01
2019-06-08T04:56:59.069Z,76.35
2019-06-08T04:57:59.320Z,77.02
2019-06-08T04:58:59.338Z,75.39
2019-06-08T04:59:59.344Z,74.52
2019-06-08T05:00:59.327Z,74.43
2019-06-08T05:01:59.303Z,74.82
2019-06-08T05:02:59.076Z,74.43
2019-06-08T05:03:59.302Z,73.76
2019-06-08T05:04:59.302Z,73.86
2019-06-08T05:05:59.306Z,73.47
2019-06-08T05:06:59.325Z,73.28
2019-06-08T05:07:59.045Z,72.71
2019-06-08T05:08:59.296Z,73.66
2019-06-08T05:09:59.296Z,72.61
2019-06-08T05:10:59.307Z,72.03
2019-06-08T05:11:59.051Z,72.61
2019-06-08T05:12:59.069Z,73.28
2019-06-08T05:13:59.373Z,72.99
2019-06-08T05:14:59.294Z,73.47
2019-06-08T05:15:59.286Z,73.19
2019-06-08T05:16:59.296Z,72.74
2019-06-08T05:17:59.283Z,72.36
2019-06-08T05:18:59.287Z,73.03
2019-06-08T05:19:59.316Z,72.55
2019-06-08T05:20:59.290Z,72.17
2019-06-08T05:21:59.300Z,71.5
2019-06-08T05:22:59.298Z,70.73
2019-06-08T05:24:01.474Z,71.21
2019-06-08T05:24:59.282Z,70.35
2019-06-08T05:25:59.282Z,70.83
2019-06-08T05:26:59.276Z,71.11
2019-06-08T05:27:59.034Z,72.17
2019-06-08T05:28:59.279Z,70.73
2019-06-08T05:29:59.029Z,70.73
2019-06-08T05:30:59.037Z,71.5
2019-06-08T05:31:59.030Z,68.43
2019-06-08T05:32:59.307Z,68.43
2019-06-08T05:33:59.033Z,68.81
2019-06-08T05:34:59.027Z,69.29
2019-06-08T05:35:59.047Z,69.29
2019-06-08T05:36:59.042Z,70.15
2019-06-08T05:37:59.272Z,69.58
2019-06-08T05:38:59.272Z,70.25
2019-06-08T05:39:59.276Z,71.21
2019-06-08T05:40:59.293Z,70.44
2019-06-08T05:41:59.269Z,68.52
2019-06-08T05:42:59.041Z,68.43
2019-06-08T05:43:59.294Z,69.77
2019-06-08T05:44:59.140Z,69.01
2019-06-08T05:45:59.019Z,69.2
2019-06-08T05:46:59.313Z,69.45
2019-06-08T05:47:59.013Z,70.31
2019-06-08T05:48:59.271Z,70.21
2019-06-08T05:49:59.018Z,70.6
2019-06-08T05:51:06.610Z,71.27
2019-06-08T05:51:59.297Z,71.56
2019-06-08T05:52:59.259Z,70.5
2019-06-08T05:53:59.050Z,70.31
2019-06-08T05:54:59.253Z,69.54
2019-06-08T05:55:59.254Z,70.06
2019-06-08T05:56:59.255Z,69.68
2019-06-08T05:57:59.014Z,69.29
2019-06-08T05:58:59.258Z,69.2
2019-06-08T05:59:59.013Z,68.91
2019-06-08T06:00:59.007Z,67.76
2019-06-08T06:01:59.004Z,67.28
2019-06-08T06:02:59.261Z,67.38
2019-06-08T06:03:59.258Z,68.05
2019-06-08T06:04:59.358Z,68.72
2019-06-08T06:05:59.006Z,67.76
2019-06-08T06:06:59.258Z,67.09
2019-06-08T06:07:59.246Z,66.99
2019-06-08T06:08:59.000Z,67.95
2019-06-08T06:09:59.248Z,67.09
2019-06-08T06:10:59.004Z,66.32
2019-06-08T06:11:58.998Z,66.13
2019-06-08T06:12:59.254Z,66.13
2019-06-08T06:13:59.004Z,65.39
2019-06-08T06:14:59.290Z,64.82
2019-06-08T06:15:58.998Z,64.43
2019-06-08T06:16:59.243Z,64.56
2019-06-08T06:17:59.008Z,61.88
2019-06-08T06:18:59.000Z,60.92
2019-06-08T06:19:59.259Z,60.35
2019-06-08T06:21:12.905Z,60.44
2019-06-08T06:22:00.043Z,61.3
2019-06-08T06:23:01.115Z,61.69
2019-06-08T06:23:59.245Z,60.53
2019-06-08T06:24:59.255Z,60.35
2019-06-08T06:25:59.245Z,61.11
2019-06-08T06:27:00.042Z,60.35
2019-06-08T06:27:59.246Z,59.99
2019-06-08T06:28:59.028Z,59.19
2019-06-08T06:29:59.275Z,58.64
2019-06-08T06:30:59.246Z,57.04
2019-06-08T06:31:59.003Z,56.3
2019-06-08T06:32:59.257Z,52.7
2019-06-08T06:33:59.250Z,50.13
2019-06-08T06:34:59.244Z,48.64
2019-06-08T06:35:59.009Z,47.51
2019-06-08T06:37:00.027Z,46.64
2019-06-08T06:37:59.261Z,46.35
2019-06-08T06:38:59.013Z,46.93
2019-06-08T06:39:59.013Z,46.06
2019-06-08T06:40:59.265Z,45.39
2019-06-08T06:41:59.270Z,45.2
2019-06-08T06:42:59.303Z,44.83
2019-06-08T06:43:59.311Z,44.66
2019-06-08T06:44:59.035Z,43.43
2019-06-08T06:45:59.286Z,43.14
2019-06-08T06:46:59.057Z,40.75
2019-06-08T06:47:59.038Z,40.57
2019-06-08T06:48:59.286Z,40.28
2019-06-08T06:49:59.297Z,40.28
2019-06-08T06:50:59.297Z,40.67
2019-06-08T06:51:59.057Z,40.47
2019-06-08T06:52:59.058Z,40.09
2019-06-08T06:53:59.306Z,40.09
2019-06-08T06:54:59.315Z,38.46
2019-06-08T06:55:59.069Z,37.98
2019-06-08T06:56:59.337Z,37.4
2019-06-08T06:57:59.341Z,37.48
2019-06-08T06:58:59.326Z,38.76
2019-06-08T06:59:59.339Z,38.83
2019-06-08T07:00:59.103Z,38.74
2019-06-08T07:02:00.183Z,40.75
2019-06-08T07:02:59.362Z,39.61
2019-06-08T07:03:59.359Z,38.74
2019-06-08T07:04:59.112Z,38.64
2019-06-08T07:05:59.120Z,38.83
2019-06-08T07:06:59.122Z,39.87
2019-06-08T07:07:59.123Z,40.44
2019-06-08T07:08:59.376Z,41.3
2019-06-08T07:09:59.385Z,42.05
2019-06-08T07:10:59.390Z,42.42
2019-06-08T07:11:59.165Z,43
2019-06-08T07:12:59.390Z,41.94
2019-06-08T07:13:59.172Z,41.2
2019-06-08T07:14:59.164Z,40.63
2019-06-08T07:16:17.151Z,40.05
2019-06-08T07:17:00.458Z,39.28
2019-06-08T07:18:00.741Z,38.79
2019-06-08T07:19:01.182Z,39.47
2019-06-08T07:19:59.453Z,39.09
2019-06-08T07:21:00.903Z,38.53
2019-06-08T07:21:59.179Z,38.12
2019-06-08T07:22:59.443Z,38.23
2019-06-08T07:23:59.469Z,38.6
2019-06-08T07:24:59.204Z,37.56
2019-06-08T07:25:59.456Z,35.84
2019-06-08T07:26:59.208Z,35.66
2019-06-08T07:28:01.818Z,35.74
2019-06-08T07:28:59.457Z,35.86
2019-06-08T07:29:59.464Z,35.47
2019-06-08T07:30:59.487Z,35.29
2019-06-08T07:31:59.472Z,35.12
2019-06-08T07:32:59.524Z,33.76
2019-06-08T07:33:59.954Z,34.44
2019-06-08T07:34:59.488Z,33.78
2019-06-08T07:35:59.894Z,32.34
2019-06-08T07:36:59.631Z,30.82
2019-06-08T07:37:59.810Z,32.29
2019-06-08T07:38:59.640Z,29.37
2019-06-08T07:40:00.139Z,29.26
2019-06-08T07:41:02.352Z,28.77
2019-06-08T07:41:59.994Z,29.64
2019-06-08T07:43:00.366Z,30.6
2019-06-08T07:44:00.902Z,30.98
2019-06-08T07:45:00.355Z,30.98
2019-06-08T07:46:00.888Z,30.1
2019-06-08T07:47:00.096Z,29.63
2019-06-08T07:48:00.573Z,29.92
2019-06-08T07:49:01.029Z,29.46
2019-06-08T07:49:59.632Z,28.3
2019-06-08T07:51:00.755Z,28.69
2019-06-08T07:52:11.062Z,29.46
2019-06-08T07:52:59.593Z,28.69
2019-06-08T07:53:59.892Z,28.8
2019-06-08T07:55:00.721Z,27.66
2019-06-08T07:55:59.789Z,27.58
2019-06-08T07:56:59.373Z,26.71
2019-06-08T07:58:00.374Z,26.23
2019-06-08T07:58:59.713Z,26.53
2019-06-08T08:00:00.123Z,27.39
2019-06-08T08:01:09.698Z,27.48
2019-06-08T08:02:00.816Z,27.76
2019-06-08T08:03:00.712Z,26.89
2019-06-08T08:04:00.876Z,26.6
2019-06-08T08:05:00.986Z,26.6
2019-06-08T08:06:00.995Z,26.61
2019-06-08T08:07:01.173Z,26.61
2019-06-08T08:07:59.696Z,26.23
2019-06-08T08:09:01.020Z,25.65
2019-06-08T08:10:01.150Z,25.57
2019-06-08T08:11:01.070Z,25.56
2019-06-08T08:11:59.789Z,26.61
2019-06-08T08:12:59.723Z,27.66
2019-06-08T08:14:01.094Z,28.61
2019-06-08T08:15:00.802Z,29.57
2019-06-08T08:16:01.735Z,29.66
2019-06-08T08:16:59.749Z,28.51
2019-06-08T08:18:00.164Z,27.73
2019-06-08T08:19:00.086Z,28.02
2019-06-08T08:19:59.849Z,29.44
2019-06-08T08:21:15.185Z,30.1
2019-06-08T08:22:21.916Z,30.11
2019-06-08T08:23:09.058Z,28.96
2019-06-08T08:24:02.614Z,29.34
2019-06-08T08:25:08.188Z,30.31
2019-06-08T08:26:03.976Z,28.66
2019-06-08T08:27:08.160Z,28.38
2019-06-08T08:28:01.777Z,28.86
2019-06-08T08:29:04.939Z,27.91
2019-06-08T08:30:02.669Z,26.57
2019-06-08T08:31:02.690Z,26.86
2019-06-08T08:32:03.074Z,26.96
2019-06-08T08:33:07.538Z,25.68
2019-06-08T08:34:08.936Z,26.06
2019-06-08T08:35:03.184Z,27.98
2019-06-08T08:36:04.005Z,28.56
2019-06-08T08:37:06.882Z,27.51
2019-06-08T08:38:07.359Z,27.13
2019-06-08T08:39:03.250Z,24.72
2019-06-08T08:40:03.647Z,24.15
2019-06-08T08:41:10.794Z,23.65
2019-06-08T08:42:08.370Z,22.97
2019-06-08T08:43:02.315Z,23.16
2019-06-08T08:44:04.775Z,22.3
2019-06-08T08:45:05.955Z,22.49
2019-06-08T08:46:02.453Z,22.77
2019-06-08T08:47:03.878Z,23.06
2019-06-08T08:48:28.082Z,22.58
2019-06-08T08:49:12.855Z,22.3
2019-06-08T08:50:02.637Z,21.72
2019-06-08T08:51:05.628Z,21.62
2019-06-08T08:52:02.917Z,21.43
2019-06-08T08:53:03.589Z,21.24
2019-06-08T08:54:08.383Z,21.53
2019-06-08T08:55:03.253Z,22.4
2019-06-08T08:56:02.822Z,22.3
2019-06-08T08:57:08.362Z,23.53
2019-06-08T08:58:02.730Z,24.77
2019-06-08T08:59:03.380Z,25.82
2019-06-08T09:00:08.501Z,26.97
2019-06-08T09:01:04.017Z,27.92
2019-06-08T09:02:04.019Z,27.51
2019-06-08T09:03:29.272Z,26.93
2019-06-08T09:04:08.569Z,27.5
2019-06-08T09:05:04.135Z,28.47
2019-06-08T09:06:04.181Z,29.34
2019-06-08T09:07:07.653Z,30.96
2019-06-08T09:08:03.944Z,28.74
2019-06-08T09:09:03.925Z,30.08
2019-06-08T09:10:04.285Z,30.94
2019-06-08T09:11:03.732Z,31.62
2019-06-08T09:12:08.069Z,29.98
2019-06-08T09:13:04.863Z,29.79
2019-06-08T09:14:10.159Z,29.71
2019-06-08T09:15:04.191Z,29.32
2019-06-08T09:16:04.257Z,28.26
2019-06-08T09:17:03.998Z,28.36
2019-06-08T09:18:04.303Z,27.78
2019-06-08T09:19:04.786Z,28.34
2019-06-08T09:20:03.709Z,29.6
2019-06-08T09:21:04.196Z,30.56
2019-06-08T09:22:04.327Z,31.7
2019-06-08T09:23:14.835Z,30.74
2019-06-08T09:24:04.014Z,29.58
2019-06-08T09:25:04.836Z,28.81
2019-06-08T09:26:12.890Z,29.77
2019-06-08T09:27:04.202Z,29.58
2019-06-08T09:28:05.265Z,28.91
2019-06-08T09:29:03.274Z,29.1
2019-06-08T09:30:04.737Z,29.39
2019-06-08T09:31:04.109Z,28.83
2019-06-08T09:32:03.580Z,28.83
2019-06-08T09:33:04.258Z,29.31
2019-06-08T09:34:14.915Z,28.25
2019-06-08T09:35:05.061Z,28.73
2019-06-08T09:36:04.873Z,29.21
2019-06-08T09:37:05.788Z,29.31
2019-06-08T09:38:05.016Z,29.02
2019-06-08T09:39:05.129Z,28.26
2019-06-08T09:40:02.538Z,27.59
2019-06-08T09:41:05.589Z,27.59
2019-06-08T09:42:04.974Z,27.2
2019-06-08T09:43:12.985Z,26.54
2019-06-08T09:44:05.808Z,26.34
2019-06-08T09:45:05.541Z,27.59
2019-06-08T09:46:05.312Z,27.39
2019-06-08T09:47:12.068Z,28.36
2019-06-08T09:48:05.646Z,29.13
2019-06-08T09:49:09.100Z,28.74
2019-06-08T09:50:05.338Z,28.45
2019-06-08T09:51:05.679Z,27.49
2019-06-08T09:52:04.070Z,27.87
2019-06-08T09:53:28.118Z,25.95
2019-06-08T09:54:06.675Z,26.23
2019-06-08T09:55:06.783Z,26.33
2019-06-08T09:56:09.439Z,27.39
2019-06-08T09:57:04.368Z,27.11
2019-06-08T09:58:09.259Z,26.81
2019-06-08T09:59:10.107Z,27.11
2019-06-08T10:00:14.133Z,26.91
2019-06-08T10:01:06.051Z,27.39
2019-06-08T10:02:12.314Z,27.49
2019-06-08T10:03:06.335Z,26.8
2019-06-08T10:04:05.737Z,27.48
2019-06-08T10:05:06.195Z,27.38
2019-06-08T10:06:09.256Z,27.86
2019-06-08T10:07:04.207Z,29.5
2019-06-08T10:08:04.520Z,28.15
2019-06-08T10:09:00.818Z,29.32
2019-06-08T10:10:04.846Z,27.49
2019-06-08T10:11:05.665Z,29.22
2019-06-08T10:12:04.972Z,27.78
2019-06-08T10:13:06.232Z,27.98
2019-06-08T10:14:09.206Z,26.92
2019-06-08T10:15:00.993Z,27.12
2019-06-08T10:16:07.397Z,26.34
2019-06-08T10:17:04.328Z,26.82
2019-06-08T10:18:02.893Z,27.6
2019-06-08T10:19:09.636Z,27.39
2019-06-08T10:20:04.510Z,26.64
2019-06-08T10:21:05.971Z,26.91
2019-06-08T10:22:01.064Z,27.49
2019-06-08T10:23:08.152Z,27.87
2019-06-08T10:24:05.095Z,28.36
2019-06-08T10:25:07.933Z,28.45
2019-06-08T10:26:04.683Z,28.45
2019-06-08T10:27:03.410Z,28.45
2019-06-08T10:28:13.190Z,27.78
2019-06-08T10:29:05.209Z,27.5
2019-06-08T10:30:07.617Z,26.92
2019-06-08T10:31:03.739Z,26.82
2019-06-08T10:32:01.539Z,27.4
2019-06-08T10:33:05.697Z,27.13
2019-06-08T10:34:06.024Z,27.89
2019-06-08T10:35:05.072Z,27.4
2019-06-08T10:36:05.877Z,27.12
2019-06-08T10:37:08.929Z,27.7
2019-06-08T10:38:11.613Z,27.7
2019-06-08T10:39:07.113Z,27.6
2019-06-08T10:40:05.574Z,27.98
2019-06-08T10:41:15.205Z,27.13
2019-06-08T10:42:06.969Z,26.55
2019-06-08T10:43:04.285Z,27.5
2019-06-08T10:44:01.561Z,26.73
2019-06-08T10:45:10.147Z,26.73
2019-06-08T10:46:14.449Z,27.5
2019-06-08T10:47:06.313Z,27.4
2019-06-08T10:48:03.180Z,27.8
2019-06-08T10:49:02.325Z,27.89
2019-06-08T10:50:10.941Z,28.18
2019-06-08T10:51:05.138Z,27.61
2019-06-08T10:52:05.502Z,27.61
2019-06-08T10:53:08.001Z,27.89
2019-06-08T10:54:00.462Z,26.84
2019-06-08T10:55:05.347Z,27.5
2019-06-08T10:56:03.353Z,30.11
2019-06-08T10:57:06.669Z,31.65
2019-06-08T10:58:00.311Z,28.95
2019-06-08T10:59:06.902Z,28.47
2019-06-08T11:00:13.507Z,28.36
2019-06-08T11:01:09.810Z,28.26
2019-06-08T11:02:07.103Z,28.64
2019-06-08T11:03:05.427Z,28.84
2019-06-08T11:04:03.168Z,29.32
2019-06-08T11:05:09.649Z,28.36
2019-06-08T11:06:04.230Z,27.8
2019-06-08T11:07:12.548Z,27.02
2019-06-08T11:08:04.060Z,27.5
2019-06-08T11:09:12.246Z,27.6
2019-06-08T11:10:03.630Z,27.89
2019-06-08T11:11:02.815Z,28.77
2019-06-08T11:12:03.238Z,28.19
2019-06-08T11:13:12.697Z,29.35
2019-06-08T11:14:03.876Z,30.3
2019-06-08T11:15:03.494Z,30.49
2019-06-08T11:16:04.005Z,29.91
2019-06-08T11:17:00.944Z,29.74
2019-06-08T11:18:06.980Z,29.55
2019-06-08T11:19:04.241Z,29.45
2019-06-08T11:20:04.713Z,29.45
2019-06-08T11:21:03.657Z,29.64
2019-06-08T11:22:08.670Z,29.74
2019-06-08T11:23:03.523Z,28.97
2019-06-08T11:24:23.433Z,29.27
2019-06-08T11:25:02.533Z,28.59
2019-06-08T11:26:13.431Z,28.2
2019-06-08T11:27:03.505Z,28.59
2019-06-08T11:28:03.448Z,28.3
2019-06-08T11:29:02.789Z,27.82
2019-06-08T11:30:09.798Z,28.3
2019-06-08T11:31:02.134Z,28.88
2019-06-08T11:32:03.934Z,28.2
2019-06-08T11:33:03.632Z,28.97
2019-06-08T11:34:02.592Z,29.74
2019-06-08T11:35:02.149Z,28.87
2019-06-08T11:36:07.002Z,28.2
2019-06-08T11:37:04.744Z,28.4
2019-06-08T11:38:03.721Z,28.2
2019-06-08T11:39:04.021Z,27.92
2019-06-08T11:40:00.240Z,28.2
2019-06-08T11:41:06.015Z,27.92
2019-06-08T11:42:02.352Z,27.93
2019-06-08T11:43:02.230Z,28.13
2019-06-08T11:44:04.794Z,27.55
2019-06-08T11:45:02.253Z,27.35
2019-06-08T11:46:02.480Z,27.64
2019-06-08T11:47:00.375Z,27.55
2019-06-08T11:48:02.316Z,27.55
2019-06-08T11:49:04.837Z,26.67
2019-06-08T11:50:00.623Z,26.97
2019-06-08T11:51:02.490Z,27.72
2019-06-08T11:52:02.465Z,28.11
2019-06-08T11:53:03.957Z,28.5
2019-06-08T11:54:02.962Z,29.36
2019-06-08T11:55:05.408Z,28.98
2019-06-08T11:56:01.215Z,28.78
2019-06-08T11:57:00.790Z,28.98
2019-06-08T11:58:00.907Z,28.4
2019-06-08T11:59:01.046Z,27.82
2019-06-08T12:00:01.176Z,27.53
2019-06-08T12:01:05.117Z,26.86
2019-06-08T12:02:01.855Z,27.92
2019-06-08T12:03:02.213Z,28.2
2019-06-08T12:04:01.272Z,28.48
2019-06-08T12:05:01.665Z,27.82
2019-06-08T12:06:01.997Z,28.78
2019-06-08T12:07:02.062Z,31.67
2019-06-08T12:08:00.517Z,28.87
2019-06-08T12:09:02.768Z,30.12
2019-06-08T12:10:00.639Z,30.59
2019-06-08T12:11:06.079Z,31.56
2019-06-08T12:12:00.357Z,31.07
2019-06-08T12:13:00.546Z,30.98
2019-06-08T12:14:00.732Z,29.72
2019-06-08T12:15:00.495Z,29.43
2019-06-08T12:16:01.319Z,29.35
2019-06-08T12:17:05.099Z,29.06
2019-06-08T12:18:00.878Z,28.39
2019-06-08T12:19:01.190Z,28.2
2019-06-08T12:20:00.328Z,28.02
2019-06-08T12:21:03.851Z,27.82
2019-06-08T12:22:00.305Z,26.46
2019-06-08T12:23:00.330Z,27.24
2019-06-08T12:24:00.326Z,28.88
2019-06-08T12:25:00.311Z,28.3
2019-06-08T12:26:00.570Z,27.04
2019-06-08T12:27:23.564Z,26.46
2019-06-08T12:28:00.980Z,25.98
2019-06-08T12:29:05.039Z,26.28
2019-06-08T12:30:08.020Z,26.37
2019-06-08T12:31:03.194Z,26.46
2019-06-08T12:32:02.636Z,27.53
2019-06-08T12:33:00.645Z,27.24
2019-06-08T12:34:01.218Z,27.04
2019-06-08T12:35:02.580Z,26.28
2019-06-08T12:36:00.600Z,25.71
2019-06-08T12:37:00.820Z,25.31
2019-06-08T12:38:00.635Z,25.13
2019-06-08T12:39:01.016Z,25.32
2019-06-08T12:40:03.560Z,25.71
2019-06-08T12:41:01.171Z,24.35
2019-06-08T12:42:00.792Z,24.65
2019-06-08T12:43:02.107Z,24.84
2019-06-08T12:44:00.630Z,25.13
2019-06-08T12:45:01.190Z,25.32
2019-06-08T12:46:00.413Z,25.03
2019-06-08T12:47:01.126Z,25.42
2019-06-08T12:48:00.422Z,25.42
2019-06-08T12:49:00.834Z,25.32
2019-06-08T12:50:00.995Z,26.29
2019-06-08T12:51:00.393Z,26.56
2019-06-08T12:52:00.889Z,27.82
2019-06-08T12:53:00.889Z,26.56
2019-06-08T12:54:02.767Z,27.92
2019-06-08T12:55:14.140Z,27.53
2019-06-08T12:56:00.646Z,27.14
2019-06-08T12:57:03.253Z,26.56